sensor_id;sensor_type;location;lat;lon;timestamp;pressure;altitude;pressure_sealevel;temperature;humidity
60337;BME280;46978;50.288;28.624;2024-01-27T00:00:51;98943.70;;;-0.93;100.00
60337;BME280;46978;50.288;28.624;2024-01-27T00:01:52;98947.91;;;-0.93;100.00
60337;BME280;46978;50.288;28.624;2024-01-27T00:02:54;98947.06;;;-0.94;100.00
60337;BME280;46978;50.288;28.624;2024-01-27T00:03:55;98943.66;;;-0.94;100.00
60337;BME280;46978;50.288;28.624;2024-01-27T00:04:57;98952.97;;;-0.95;100.00
60337;BME280;46978;50.288;28.624;2024-01-27T00:05:59;98941.08;;;-0.96;100.00
60337;BME280;46978;50.288;28.624;2024-01-27T00:07:00;98943.59;;;-0.97;100.00
60337;BME280;46978;50.288;28.624;2024-01-27T00:08:02;98949.54;;;-0.97;100.00
60337;BME280;46978;50.288;28.624;2024-01-27T00:09:04;98946.99;;;-0.97;100.00
60337;BME280;46978;50.288;28.624;2024-01-27T00:10:07;98950.39;;;-0.96;100.00
60337;BME280;46978;50.288;28.624;2024-01-27T00:11:11;98944.45;;;-0.97;100.00
60337;BME280;46978;50.288;28.624;2024-01-27T00:12:13;98946.11;;;-0.99;100.00
60337;BME280;46978;50.288;28.624;2024-01-27T00:13:14;98940.14;;;-0.99;100.00
60337;BME280;46978;50.288;28.624;2024-01-27T00:14:16;98936.74;;;-1.00;100.00
60337;BME280;46978;50.288;28.624;2024-01-27T00:15:17;98943.53;;;-1.00;100.00
60337;BME280;46978;50.288;28.624;2024-01-27T00:16:19;98936.70;;;-1.01;100.00
60337;BME280;46978;50.288;28.624;2024-01-27T00:17:21;98940.95;;;-1.02;100.00
60337;BME280;46978;50.288;28.624;2024-01-27T00:18:22;98937.55;;;-1.01;100.00
60337;BME280;46978;50.288;28.624;2024-01-27T00:19:24;98942.65;;;-1.01;100.00
60337;BME280;46978;50.288;28.624;2024-01-27T00:20:26;98940.95;;;-1.02;100.00
60337;BME280;46978;50.288;28.624;2024-01-27T00:21:27;98940.10;;;-1.01;100.00
60337;BME280;46978;50.288;28.624;2024-01-27T00:22:29;98940.10;;;-1.01;100.00
60337;BME280;46978;50.288;28.624;2024-01-27T00:23:31;98931.61;;;-1.01;100.00
60337;BME280;46978;50.288;28.624;2024-01-27T00:24:33;98936.70;;;-1.01;100.00
60337;BME280;46978;50.288;28.624;2024-01-27T00:25:35;98931.58;;;-1.03;100.00
60337;BME280;46978;50.288;28.624;2024-01-27T00:26:37;98939.22;;;-1.03;100.00
60337;BME280;46978;50.288;28.624;2024-01-27T00:27:38;98935.86;;;-1.02;100.00
60337;BME280;46978;50.288;28.624;2024-01-27T00:28:40;98934.13;;;-1.03;100.00
60337;BME280;46978;50.288;28.624;2024-01-27T00:29:41;98934.13;;;-1.03;100.00
60337;BME280;46978;50.288;28.624;2024-01-27T00:30:43;98929.85;;;-1.04;100.00
60337;BME280;46978;50.288;28.624;2024-01-27T00:31:45;98929.85;;;-1.04;100.00
60337;BME280;46978;50.288;28.624;2024-01-27T00:32:47;98929.85;;;-1.04;100.00
60337;BME280;46978;50.288;28.624;2024-01-27T00:33:48;98927.30;;;-1.04;100.00
60337;BME280;46978;50.288;28.624;2024-01-27T00:34:50;98932.43;;;-1.02;100.00
60337;BME280;46978;50.288;28.624;2024-01-27T00:35:51;98929.91;;;-1.01;100.00
60337;BME280;46978;50.288;28.624;2024-01-27T00:36:53;98929.10;;;-1.00;100.00
60337;BME280;46978;50.288;28.624;2024-01-27T00:37:55;98928.31;;;-0.97;100.00
60337;BME280;46978;50.288;28.624;2024-01-27T00:38:56;98931.71;;;-0.97;100.00
60337;BME280;46978;50.288;28.624;2024-01-27T00:39:58;98929.98;;;-0.98;100.00
60337;BME280;46978;50.288;28.624;2024-01-27T00:41:00;98929.98;;;-0.98;100.00
60337;BME280;46978;50.288;28.624;2024-01-27T00:42:02;98931.71;;;-0.97;100.00
60337;BME280;46978;50.288;28.624;2024-01-27T00:43:03;98930.89;;;-0.96;100.00
60337;BME280;46978;50.288;28.624;2024-01-27T00:44:05;98930.08;;;-0.93;100.00
60337;BME280;46978;50.288;28.624;2024-01-27T00:45:08;98934.32;;;-0.94;100.00
60337;BME280;46978;50.288;28.624;2024-01-27T00:46:11;98936.84;;;-0.95;100.00
60337;BME280;46978;50.288;28.624;2024-01-27T00:47:12;98936.80;;;-0.97;100.00
60337;BME280;46978;50.288;28.624;2024-01-27T00:48:14;98930.89;;;-0.96;100.00
60337;BME280;46978;50.288;28.624;2024-01-27T00:49:16;98935.14;;;-0.95;100.00
60337;BME280;46978;50.288;28.624;2024-01-27T00:50:19;98930.86;;;-0.97;100.00
60337;BME280;46978;50.288;28.624;2024-01-27T00:51:21;98929.16;;;-0.97;100.00
60337;BME280;46978;50.288;28.624;2024-01-27T00:52:23;98927.47;;;-0.96;100.00
60337;BME280;46978;50.288;28.624;2024-01-27T00:53:24;98934.26;;;-0.97;100.00
60337;BME280;46978;50.288;28.624;2024-01-27T00:54:26;98933.41;;;-0.97;100.00
60337;BME280;46978;50.288;28.624;2024-01-27T00:55:28;98934.26;;;-0.97;100.00
60337;BME280;46978;50.288;28.624;2024-01-27T00:56:30;98934.26;;;-0.97;100.00
60337;BME280;46978;50.288;28.624;2024-01-27T00:57:32;98929.16;;;-0.97;100.00
60337;BME280;46978;50.288;28.624;2024-01-27T00:58:33;98930.86;;;-0.97;100.00
60337;BME280;46978;50.288;28.624;2024-01-27T00:59:35;98931.71;;;-0.97;100.00
60337;BME280;46978;50.288;28.624;2024-01-27T01:00:37;98935.11;;;-0.96;100.00
60337;BME280;46978;50.288;28.624;2024-01-27T01:01:38;98928.31;;;-0.97;100.00
60337;BME280;46978;50.288;28.624;2024-01-27T01:02:40;98930.86;;;-0.97;100.00
60337;BME280;46978;50.288;28.624;2024-01-27T01:03:42;98928.34;;;-0.96;100.00
60337;BME280;46978;50.288;28.624;2024-01-27T01:04:43;98932.59;;;-0.95;100.00
60337;BME280;46978;50.288;28.624;2024-01-27T01:05:45;98930.05;;;-0.95;100.00
60337;BME280;46978;50.288;28.624;2024-01-27T01:06:47;98930.92;;;-0.94;100.00
60337;BME280;46978;50.288;28.624;2024-01-27T01:07:48;98928.41;;;-0.93;100.00
60337;BME280;46978;50.288;28.624;2024-01-27T01:08:50;98925.89;;;-0.91;100.00
60337;BME280;46978;50.288;28.624;2024-01-27T01:09:51;98917.31;;;-0.95;100.00
60337;BME280;46978;50.288;28.624;2024-01-27T01:10:53;98934.32;;;-0.94;100.00
60337;BME280;46978;50.288;28.624;2024-01-27T01:11:55;98929.20;;;-0.95;100.00
60337;BME280;46978;50.288;28.624;2024-01-27T01:12:56;98930.02;;;-0.96;100.00
60337;BME280;46978;50.288;28.624;2024-01-27T01:13:58;98924.04;;;-0.98;100.00
60337;BME280;46978;50.288;28.624;2024-01-27T01:14:59;98923.19;;;-0.99;100.00
60337;BME280;46978;50.288;28.624;2024-01-27T01:16:01;98921.49;;;-0.98;100.00
60337;BME280;46978;50.288;28.624;2024-01-27T01:17:03;98935.08;;;-0.98;100.00
60337;BME280;46978;50.288;28.624;2024-01-27T01:18:05;98927.44;;;-0.98;100.00
60337;BME280;46978;50.288;28.624;2024-01-27T01:19:06;98924.89;;;-0.98;100.00
60337;BME280;46978;50.288;28.624;2024-01-27T01:20:09;98930.86;;;-0.97;100.00
60337;BME280;46978;50.288;28.624;2024-01-27T01:21:12;98927.47;;;-0.96;100.00
60337;BME280;46978;50.288;28.624;2024-01-27T01:22:13;98929.16;;;-0.97;100.00
60337;BME280;46978;50.288;28.624;2024-01-27T01:23:15;98930.02;;;-0.96;100.00
60337;BME280;46978;50.288;28.624;2024-01-27T01:24:16;98927.50;;;-0.95;100.00
60337;BME280;46978;50.288;28.624;2024-01-27T01:25:20;98923.29;;;-0.94;100.00
60337;BME280;46978;50.288;28.624;2024-01-27T01:26:21;98919.05;;;-0.94;100.00
60337;BME280;46978;50.288;28.624;2024-01-27T01:27:23;98926.72;;;-0.92;100.00
60337;BME280;46978;50.288;28.624;2024-01-27T01:28:25;98923.35;;;-0.91;100.00
60337;BME280;46978;50.288;28.624;2024-01-27T01:29:26;98917.38;;;-0.92;100.00
60337;BME280;46978;50.288;28.624;2024-01-27T01:30:28;98915.65;;;-0.94;100.00
60337;BME280;46978;50.288;28.624;2024-01-27T01:31:30;98923.38;;;-0.89;100.00
60337;BME280;46978;50.288;28.624;2024-01-27T01:32:32;98919.95;;;-0.90;100.00
60337;BME280;46978;50.288;28.624;2024-01-27T01:33:33;98921.66;;;-0.91;100.00
60337;BME280;46978;50.288;28.624;2024-01-27T01:34:35;98918.22;;;-0.93;100.00
60337;BME280;46978;50.288;28.624;2024-01-27T01:35:36;98919.05;;;-0.94;100.00
60337;BME280;46978;50.288;28.624;2024-01-27T01:36:38;98914.77;;;-0.95;100.00
60337;BME280;46978;50.288;28.624;2024-01-27T01:37:40;98917.28;;;-0.96;100.00
60337;BME280;46978;50.288;28.624;2024-01-27T01:38:41;98916.43;;;-0.97;100.00
60337;BME280;46978;50.288;28.624;2024-01-27T01:39:43;98924.07;;;-0.97;100.00
60337;BME280;46978;50.288;28.624;2024-01-27T01:40:44;98913.89;;;-0.97;100.00
60337;BME280;46978;50.288;28.624;2024-01-27T01:41:46;98907.09;;;-0.96;100.00
60337;BME280;46978;50.288;28.624;2024-01-27T01:42:51;98911.30;;;-0.98;100.00
60337;BME280;46978;50.288;28.624;2024-01-27T01:43:53;98915.58;;;-0.97;100.00
60337;BME280;46978;50.288;28.624;2024-01-27T01:44:54;98913.89;;;-0.97;100.00
60337;BME280;46978;50.288;28.624;2024-01-27T01:45:56;98909.61;;;-0.98;100.00
60337;BME280;46978;50.288;28.624;2024-01-27T01:46:59;98901.19;;;-0.95;100.00
60337;BME280;46978;50.288;28.624;2024-01-27T01:48:01;98901.15;;;-0.97;100.00
60337;BME280;46978;50.288;28.624;2024-01-27T01:49:03;98900.34;;;-0.96;100.00
60337;BME280;46978;50.288;28.624;2024-01-27T01:50:06;98901.15;;;-0.97;100.00
60337;BME280;46978;50.288;28.624;2024-01-27T01:51:08;98901.97;;;-0.98;100.00
60337;BME280;46978;50.288;28.624;2024-01-27T01:52:10;98898.55;;;-1.00;100.00
60337;BME280;46978;50.288;28.624;2024-01-27T01:53:13;98897.72;;;-0.99;100.00
60337;BME280;46978;50.288;28.624;2024-01-27T01:54:15;98897.63;;;-1.03;100.00
60337;BME280;46978;50.288;28.624;2024-01-27T01:55:17;98898.41;;;-1.06;100.00
60337;BME280;46978;50.288;28.624;2024-01-27T01:56:23;98895.84;;;-1.07;100.00
60337;BME280;46978;50.288;28.624;2024-01-27T01:57:25;98896.66;;;-1.09;100.00
60337;BME280;46978;50.288;28.624;2024-01-27T01:58:26;98894.95;;;-1.10;100.00
60337;BME280;46978;50.288;28.624;2024-01-27T01:59:28;98902.56;;;-1.11;100.00
60337;BME280;46978;50.288;28.624;2024-01-27T02:00:30;98900.02;;;-1.11;100.00
60337;BME280;46978;50.288;28.624;2024-01-27T02:01:31;98897.47;;;-1.11;100.00
60337;BME280;46978;50.288;28.624;2024-01-27T02:02:33;98905.11;;;-1.11;100.00
60337;BME280;46978;50.288;28.624;2024-01-27T02:03:35;98896.62;;;-1.10;100.00
60337;BME280;46978;50.288;28.624;2024-01-27T02:04:44;98899.13;;;-1.12;100.00
60337;BME280;46978;50.288;28.624;2024-01-27T02:05:46;98894.05;;;-1.12;100.00
60337;BME280;46978;50.288;28.624;2024-01-27T02:06:48;98893.19;;;-1.12;100.00
60337;BME280;46978;50.288;28.624;2024-01-27T02:07:49;98886.44;;;-1.10;100.00
60337;BME280;46978;50.288;28.624;2024-01-27T02:08:51;98906.80;;;-1.10;100.00
60337;BME280;46978;50.288;28.624;2024-01-27T02:09:53;98892.44;;;-1.08;100.00
60337;BME280;46978;50.288;28.624;2024-01-27T02:10:55;98898.38;;;-1.07;100.00
60337;BME280;46978;50.288;28.624;2024-01-27T02:11:56;98884.77;;;-1.10;100.00
60337;BME280;46978;50.288;28.624;2024-01-27T02:12:58;98884.77;;;-1.10;100.00
60337;BME280;46978;50.288;28.624;2024-01-27T02:14:00;98890.65;;;-1.12;100.00
60337;BME280;46978;50.288;28.624;2024-01-27T02:15:01;98888.10;;;-1.12;100.00
60337;BME280;46978;50.288;28.624;2024-01-27T02:16:04;98897.44;;;-1.13;100.00
60337;BME280;46978;50.288;28.624;2024-01-27T02:17:06;98896.55;;;-1.13;100.00
60337;BME280;46978;50.288;28.624;2024-01-27T02:18:07;98895.73;;;-1.12;100.00
60337;BME280;46978;50.288;28.624;2024-01-27T02:19:09;98898.28;;;-1.12;100.00
60337;BME280;46978;50.288;28.624;2024-01-27T02:20:11;98894.92;;;-1.11;100.00
60337;BME280;46978;50.288;28.624;2024-01-27T02:21:12;98889.83;;;-1.11;100.00
60337;BME280;46978;50.288;28.624;2024-01-27T02:22:14;98891.50;;;-1.12;100.00
60337;BME280;46978;50.288;28.624;2024-01-27T02:23:16;98894.95;;;-1.10;100.00
60337;BME280;46978;50.288;28.624;2024-01-27T02:24:17;98891.56;;;-1.09;100.00
60337;BME280;46978;50.288;28.624;2024-01-27T02:25:21;98889.02;;;-1.09;100.00
60337;BME280;46978;50.288;28.624;2024-01-27T02:26:23;98889.02;;;-1.09;100.00
60337;BME280;46978;50.288;28.624;2024-01-27T02:27:25;98889.89;;;-1.08;100.00
60337;BME280;46978;50.288;28.624;2024-01-27T02:28:27;98894.14;;;-1.07;100.00
60337;BME280;46978;50.288;28.624;2024-01-27T02:29:28;98885.66;;;-1.07;100.00
60337;BME280;46978;50.288;28.624;2024-01-27T02:30:30;98892.47;;;-1.06;100.00
60337;BME280;46978;50.288;28.624;2024-01-27T02:31:32;98896.72;;;-1.05;100.00
60337;BME280;46978;50.288;28.624;2024-01-27T02:32:33;98896.72;;;-1.05;100.00
60337;BME280;46978;50.288;28.624;2024-01-27T02:33:35;98889.89;;;-1.08;100.00
60337;BME280;46978;50.288;28.624;2024-01-27T02:34:36;98894.98;;;-1.08;100.00
60337;BME280;46978;50.288;28.624;2024-01-27T02:35:38;98904.29;;;-1.09;100.00
60337;BME280;46978;50.288;28.624;2024-01-27T02:36:40;98897.53;;;-1.08;100.00
60337;BME280;46978;50.288;28.624;2024-01-27T02:37:41;98906.02;;;-1.07;100.00
60337;BME280;46978;50.288;28.624;2024-01-27T02:38:43;98894.14;;;-1.07;100.00
60337;BME280;46978;50.288;28.624;2024-01-27T02:39:45;98897.56;;;-1.06;100.00
60337;BME280;46978;50.288;28.624;2024-01-27T02:41:06;98891.59;;;-1.07;100.00
60337;BME280;46978;50.288;28.624;2024-01-27T02:42:08;98887.38;;;-1.06;100.00
60337;BME280;46978;50.288;28.624;2024-01-27T02:43:10;98884.84;;;-1.06;100.00
60337;BME280;46978;50.288;28.624;2024-01-27T02:44:11;98891.59;;;-1.07;100.00
60337;BME280;46978;50.288;28.624;2024-01-27T02:45:13;98891.56;;;-1.09;100.00
60337;BME280;46978;50.288;28.624;2024-01-27T02:46:16;98889.86;;;-1.10;100.00
60337;BME280;46978;50.288;28.624;2024-01-27T02:47:17;98886.44;;;-1.10;100.00
60337;BME280;46978;50.288;28.624;2024-01-27T02:48:19;98894.05;;;-1.12;100.00
60337;BME280;46978;50.288;28.624;2024-01-27T02:49:20;98893.98;;;-1.15;100.00
60337;BME280;46978;50.288;28.624;2024-01-27T02:50:23;98895.70;;;-1.14;100.00
60337;BME280;46978;50.288;28.624;2024-01-27T02:51:25;98890.58;;;-1.15;100.00
60337;BME280;46978;50.288;28.624;2024-01-27T02:52:26;98897.41;;;-1.14;100.00
60337;BME280;46978;50.288;28.624;2024-01-27T02:53:28;98892.28;;;-1.16;100.00
60337;BME280;46978;50.288;28.624;2024-01-27T02:54:29;98894.86;;;-1.14;100.00
60337;BME280;46978;50.288;28.624;2024-01-27T02:55:33;98901.61;;;-1.15;100.00
60337;BME280;46978;50.288;28.624;2024-01-27T02:56:35;98899.92;;;-1.16;100.00
60337;BME280;46978;50.288;28.624;2024-01-27T02:57:36;98899.92;;;-1.16;100.00
60337;BME280;46978;50.288;28.624;2024-01-27T02:58:38;98897.38;;;-1.16;100.00
60337;BME280;46978;50.288;28.624;2024-01-27T02:59:39;98893.98;;;-1.15;100.00
60337;BME280;46978;50.288;28.624;2024-01-27T03:00:41;98891.40;;;-1.16;100.00
60337;BME280;46978;50.288;28.624;2024-01-27T03:01:43;98896.48;;;-1.16;100.00
60337;BME280;46978;50.288;28.624;2024-01-27T03:02:45;98886.30;;;-1.16;100.00
60337;BME280;46978;50.288;28.624;2024-01-27T03:03:46;98895.67;;;-1.15;100.00
60337;BME280;46978;50.288;28.624;2024-01-27T03:04:48;98893.98;;;-1.15;100.00
60337;BME280;46978;50.288;28.624;2024-01-27T03:05:49;98893.95;;;-1.16;100.00
60337;BME280;46978;50.288;28.624;2024-01-27T03:06:51;98892.31;;;-1.14;100.00
60337;BME280;46978;50.288;28.624;2024-01-27T03:07:52;98898.28;;;-1.12;100.00
60337;BME280;46978;50.288;28.624;2024-01-27T03:08:54;98894.08;;;-1.10;100.00
60337;BME280;46978;50.288;28.624;2024-01-27T03:09:56;98900.08;;;-1.08;100.00
60337;BME280;46978;50.288;28.624;2024-01-27T03:10:57;98900.93;;;-1.07;100.00
60337;BME280;46978;50.288;28.624;2024-01-27T03:11:59;98900.08;;;-1.08;100.00
60337;BME280;46978;50.288;28.624;2024-01-27T03:13:00;98896.66;;;-1.09;100.00
60337;BME280;46978;50.288;28.624;2024-01-27T03:14:02;98906.88;;;-1.07;100.00
60337;BME280;46978;50.288;28.624;2024-01-27T03:15:05;98897.56;;;-1.06;100.00
60337;BME280;46978;50.288;28.624;2024-01-27T03:16:08;98901.81;;;-1.05;100.00
60337;BME280;46978;50.288;28.624;2024-01-27T03:17:10;98893.32;;;-1.06;100.00
60337;BME280;46978;50.288;28.624;2024-01-27T03:18:11;98900.11;;;-1.06;100.00
60337;BME280;46978;50.288;28.624;2024-01-27T03:19:13;98894.11;;;-1.09;100.00
60337;BME280;46978;50.288;28.624;2024-01-27T03:20:16;98888.10;;;-1.12;100.00
60337;BME280;46978;50.288;28.624;2024-01-27T03:21:18;98898.28;;;-1.12;100.00
60337;BME280;46978;50.288;28.624;2024-01-27T03:22:20;98899.10;;;-1.13;100.00
60337;BME280;46978;50.288;28.624;2024-01-27T03:23:21;98897.44;;;-1.13;100.00
60337;BME280;46978;50.288;28.624;2024-01-27T03:24:23;98886.38;;;-1.13;100.00
60337;BME280;46978;50.288;28.624;2024-01-27T03:25:26;98894.89;;;-1.13;100.00
60337;BME280;46978;50.288;28.624;2024-01-27T03:26:28;98899.10;;;-1.13;100.00
60337;BME280;46978;50.288;28.624;2024-01-27T03:27:29;98890.62;;;-1.14;100.00
60337;BME280;46978;50.288;28.624;2024-01-27T03:28:31;98896.55;;;-1.13;100.00
60337;BME280;46978;50.288;28.624;2024-01-27T03:29:33;98894.89;;;-1.13;100.00
60337;BME280;46978;50.288;28.624;2024-01-27T03:30:34;98886.34;;;-1.15;100.00
60337;BME280;46978;50.288;28.624;2024-01-27T03:31:36;98887.22;;;-1.14;100.00
60337;BME280;46978;50.288;28.624;2024-01-27T03:32:38;98893.13;;;-1.15;100.00
60337;BME280;46978;50.288;28.624;2024-01-27T03:34:44;98893.13;;;-1.15;100.00
60337;BME280;46978;50.288;28.624;2024-01-27T03:35:46;98891.43;;;-1.15;100.00
60337;BME280;46978;50.288;28.624;2024-01-27T03:36:48;98894.86;;;-1.14;100.00
60337;BME280;46978;50.288;28.624;2024-01-27T03:37:50;98888.89;;;-1.15;100.00
60337;BME280;46978;50.288;28.624;2024-01-27T03:38:51;98898.25;;;-1.14;100.00
60337;BME280;46978;50.288;28.624;2024-01-27T03:39:53;98889.80;;;-1.13;100.00
60337;BME280;46978;50.288;28.624;2024-01-27T03:40:55;98888.10;;;-1.12;100.00
60337;BME280;46978;50.288;28.624;2024-01-27T03:41:59;98888.10;;;-1.12;100.00
60337;BME280;46978;50.288;28.624;2024-01-27T03:43:01;98881.31;;;-1.12;100.00
60337;BME280;46978;50.288;28.624;2024-01-27T03:44:03;98883.01;;;-1.12;100.00
60337;BME280;46978;50.288;28.624;2024-01-27T03:45:05;98889.83;;;-1.11;100.00
60337;BME280;46978;50.288;28.624;2024-01-27T03:46:07;98888.10;;;-1.12;100.00
60337;BME280;46978;50.288;28.624;2024-01-27T03:47:09;98888.92;;;-1.13;100.00
60337;BME280;46978;50.288;28.624;2024-01-27T03:48:10;98888.92;;;-1.13;100.00
60337;BME280;46978;50.288;28.624;2024-01-27T03:49:12;98885.55;;;-1.12;100.00
60337;BME280;46978;50.288;28.624;2024-01-27T03:50:14;98883.86;;;-1.12;100.00
60337;BME280;46978;50.288;28.624;2024-01-27T03:51:16;98892.44;;;-1.08;100.00
60337;BME280;46978;50.288;28.624;2024-01-27T03:52:17;98891.62;;;-1.05;100.00
60337;BME280;46978;50.288;28.624;2024-01-27T03:53:19;98886.56;;;-1.04;100.00
60337;BME280;46978;50.288;28.624;2024-01-27T03:54:20;98885.75;;;-1.03;100.00
60337;BME280;46978;50.288;28.624;2024-01-27T03:55:24;98888.30;;;-1.03;100.00
60337;BME280;46978;50.288;28.624;2024-01-27T03:56:27;98886.56;;;-1.04;100.00
60337;BME280;46978;50.288;28.624;2024-01-27T03:57:29;98887.41;;;-1.05;100.00
60337;BME280;46978;50.288;28.624;2024-01-27T03:58:31;98889.05;;;-1.07;100.00
60337;BME280;46978;50.288;28.624;2024-01-27T03:59:33;98885.68;;;-1.06;100.00
60337;BME280;46978;50.288;28.624;2024-01-27T04:00:34;98888.23;;;-1.06;100.00
60337;BME280;46978;50.288;28.624;2024-01-27T04:01:36;98886.53;;;-1.05;100.00
60337;BME280;46978;50.288;28.624;2024-01-27T04:02:38;98885.72;;;-1.04;100.00
60337;BME280;46978;50.288;28.624;2024-01-27T04:03:40;98885.75;;;-1.03;100.00
60337;BME280;46978;50.288;28.624;2024-01-27T04:04:41;98884.90;;;-1.03;100.00
60337;BME280;46978;50.288;28.624;2024-01-27T04:05:43;98888.30;;;-1.03;100.00
60337;BME280;46978;50.288;28.624;2024-01-27T04:06:45;98884.05;;;-1.02;100.00
60337;BME280;46978;50.288;28.624;2024-01-27T04:07:46;98890.02;;;-1.02;100.00
60337;BME280;46978;50.288;28.624;2024-01-27T04:08:48;98894.20;;;-1.04;100.00
60337;BME280;46978;50.288;28.624;2024-01-27T04:09:49;98888.20;;;-1.07;100.00
60337;BME280;46978;50.288;28.624;2024-01-27T04:10:52;98886.47;;;-1.09;100.00
60337;BME280;46978;50.288;28.624;2024-01-27T04:11:54;98888.16;;;-1.09;100.00
60337;BME280;46978;50.288;28.624;2024-01-27T04:12:55;98886.44;;;-1.10;100.00
60337;BME280;46978;50.288;28.624;2024-01-27T04:13:57;98891.53;;;-1.10;100.00
60337;BME280;46978;50.288;28.624;2024-01-27T04:14:58;98892.38;;;-1.11;100.00
60337;BME280;46978;50.288;28.624;2024-01-27T04:16:00;98893.19;;;-1.12;100.00
60337;BME280;46978;50.288;28.624;2024-01-27T04:17:02;98893.98;;;-1.15;100.00
60337;BME280;46978;50.288;28.624;2024-01-27T04:18:09;98898.22;;;-1.15;100.00
60337;BME280;46978;50.288;28.624;2024-01-27T04:19:08;98891.37;;;-1.18;100.00
60337;BME280;46978;50.288;28.624;2024-01-27T04:20:11;98893.91;;;-1.18;100.00
60337;BME280;46978;50.288;28.624;2024-01-27T04:21:13;98895.58;;;-1.20;100.00
60337;BME280;46978;50.288;28.624;2024-01-27T04:22:14;98897.31;;;-1.19;100.00
60337;BME280;46978;50.288;28.624;2024-01-27T04:23:16;98896.45;;;-1.18;100.00
60337;BME280;46978;50.288;28.624;2024-01-27T04:24:18;98892.25;;;-1.17;100.00
60337;BME280;46978;50.288;28.624;2024-01-27T04:25:21;98897.31;;;-1.19;100.00
60337;BME280;46978;50.288;28.624;2024-01-27T04:26:23;98893.88;;;-1.19;100.00
60337;BME280;46978;50.288;28.624;2024-01-27T04:27:27;98896.42;;;-1.19;100.00
60337;BME280;46978;50.288;28.624;2024-01-27T04:28:29;98894.77;;;-1.19;100.00
60337;BME280;46978;50.288;28.624;2024-01-27T04:29:30;98898.16;;;-1.18;100.00
60337;BME280;46978;50.288;28.624;2024-01-27T04:30:32;98901.55;;;-1.18;100.00
60337;BME280;46978;50.288;28.624;2024-01-27T04:31:39;98903.22;;;-1.20;100.00
60337;BME280;46978;50.288;28.624;2024-01-27T04:32:39;98901.48;;;-1.21;100.00
60337;BME280;46978;50.288;28.624;2024-01-27T04:33:41;98901.48;;;-1.21;100.00
60337;BME280;46978;50.288;28.624;2024-01-27T04:34:42;98904.03;;;-1.21;100.00
60337;BME280;46978;50.288;28.624;2024-01-27T04:35:44;98901.48;;;-1.21;100.00
60337;BME280;46978;50.288;28.624;2024-01-27T04:36:46;98905.73;;;-1.21;100.00
60337;BME280;46978;50.288;28.624;2024-01-27T04:37:47;98906.54;;;-1.22;100.00
60337;BME280;46978;50.288;28.624;2024-01-27T04:38:49;98907.39;;;-1.23;100.00
60337;BME280;46978;50.288;28.624;2024-01-27T04:39:50;98903.11;;;-1.24;100.00
60337;BME280;46978;50.288;28.624;2024-01-27T04:40:52;98908.20;;;-1.24;100.00
60337;BME280;46978;50.288;28.624;2024-01-27T04:41:54;98909.91;;;-1.25;100.00
60337;BME280;46978;50.288;28.624;2024-01-27T04:42:55;98907.36;;;-1.25;100.00
60337;BME280;46978;50.288;28.624;2024-01-27T04:43:57;98909.05;;;-1.24;100.00
60337;BME280;46978;50.288;28.624;2024-01-27T04:44:58;98911.63;;;-1.22;100.00
60337;BME280;46978;50.288;28.624;2024-01-27T04:46:00;98914.18;;;-1.22;100.00
60337;BME280;46978;50.288;28.624;2024-01-27T04:47:02;98917.64;;;-1.20;100.00
60337;BME280;46978;50.288;28.624;2024-01-27T04:48:04;98915.12;;;-1.19;100.00
60337;BME280;46978;50.288;28.624;2024-01-27T04:49:06;98911.73;;;-1.18;100.00
60337;BME280;46978;50.288;28.624;2024-01-27T04:50:09;98915.16;;;-1.17;100.00
60337;BME280;46978;50.288;28.624;2024-01-27T04:51:10;98908.30;;;-1.20;100.00
60337;BME280;46978;50.288;28.624;2024-01-27T04:52:12;98910.81;;;-1.21;100.00
60337;BME280;46978;50.288;28.624;2024-01-27T04:53:13;98915.91;;;-1.21;100.00
60337;BME280;46978;50.288;28.624;2024-01-27T04:54:15;98915.03;;;-1.23;100.00
60337;BME280;46978;50.288;28.624;2024-01-27T04:55:17;98915.81;;;-1.26;100.00
60337;BME280;46978;50.288;28.624;2024-01-27T04:56:19;98911.56;;;-1.26;100.00
60337;BME280;46978;50.288;28.624;2024-01-27T04:57:20;98909.87;;;-1.27;100.00
60337;BME280;46978;50.288;28.624;2024-01-27T04:58:22;98915.00;;;-1.25;100.00
60337;BME280;46978;50.288;28.624;2024-01-27T04:59:24;98911.60;;;-1.24;100.00
60337;BME280;46978;50.288;28.624;2024-01-27T05:00:26;98915.88;;;-1.23;100.00
60337;BME280;46978;50.288;28.624;2024-01-27T05:01:28;98915.06;;;-1.22;100.00
60337;BME280;46978;50.288;28.624;2024-01-27T05:02:29;98919.30;;;-1.21;100.00
60337;BME280;46978;50.288;28.624;2024-01-27T05:03:31;98920.16;;;-1.22;100.00
60337;BME280;46978;50.288;28.624;2024-01-27T05:04:32;98921.84;;;-1.21;100.00
60337;BME280;46978;50.288;28.624;2024-01-27T05:05:34;98918.42;;;-1.23;100.00
60337;BME280;46978;50.288;28.624;2024-01-27T05:06:36;98920.97;;;-1.23;100.00
60337;BME280;46978;50.288;28.624;2024-01-27T05:07:38;98919.27;;;-1.22;100.00
60337;BME280;46978;50.288;28.624;2024-01-27T05:08:40;98921.81;;;-1.22;100.00
60337;BME280;46978;50.288;28.624;2024-01-27T05:09:41;98926.09;;;-1.21;100.00
60337;BME280;46978;50.288;28.624;2024-01-27T05:10:43;98926.09;;;-1.21;100.00
60337;BME280;46978;50.288;28.624;2024-01-27T05:11:45;98927.75;;;-1.23;100.00
60337;BME280;46978;50.288;28.624;2024-01-27T05:12:46;98930.30;;;-1.23;100.00
60337;BME280;46978;50.288;28.624;2024-01-27T05:13:48;98930.30;;;-1.23;100.00
60337;BME280;46978;50.288;28.624;2024-01-27T05:14:49;98940.55;;;-1.20;100.00
60337;BME280;46978;50.288;28.624;2024-01-27T05:15:51;98930.41;;;-1.19;100.00
60337;BME280;46978;50.288;28.624;2024-01-27T05:16:53;98926.97;;;-1.19;100.00
60337;BME280;46978;50.288;28.624;2024-01-27T05:17:54;98932.10;;;-1.18;100.00
60337;BME280;46978;50.288;28.624;2024-01-27T05:18:56;98933.83;;;-1.17;100.00
60337;BME280;46978;50.288;28.624;2024-01-27T05:19:58;98932.13;;;-1.16;100.00
60337;BME280;46978;50.288;28.624;2024-01-27T05:21:00;98935.53;;;-1.17;100.00